Aireys Inlet, Australia
Current Conditions -  °F | °C
As of 8:30 AM on Thursday 18 Dec 2014 (Local Time) from YMAV Reporting Station
Clear Clear  
Wind Chill: 64°   Ceiling: Unl
Heat Index: 64°   Visibility: 6mi
Dew Point: 46°   Wind: 10mph
Humidity: 52%   Direction: 340°NNW
Pressure: 29.68"   Gusts: NA
Location:  38.46°S, 144.11°E
Report Text: YMAV 172130Z AUTO 34009KT 9999 // NCD 18/08 Q1005
Loading
Personal Weather Stations






























Interactive Weather Map New forecast layout! Learn more

10-Day Weather Forecast

Advertisements
Track Severe Weather on mobile